サンクトペテルブルク の空港の天気 - METARとTAF

プルコヴォ空港(サンクトペテルブルグ) ( ULLI / LED ) - ロシア サンクトペテルブルク
飛行場実況気象(Metar)
観測時間05/25 13:00 MSK (05/25 10:00 UTC)
風向・風速北西 6m/s
視程10km以上
天気現象
全天の4割程度の雲 雲底高度 700m
全天の8割程度の雲 雲底高度 1310m
気温15℃
湿度72%
気圧1007hPa
METARULLI 251000Z 32006MPS 9999 SCT023CB BKN043 15/10 Q1007 R88/090060 NOSIG
過去の天気等 Google飛行場航空写真 Wunderground天気予報

過去48時間のMETAR

飛行場予報(TAF)
発表時間: 5/25 10:59 MSK (5/25 07:59 UTC)
予報対象時間: 25日12時 MSK ~ 26日12時 MSK
風向・風速西 2m/s 瞬間風速 7m/s
視程6,000m
全天の8割程度の雲 雲底高度 340m
全天の8割程度の雲 雲底高度 910m
25日12時 MSK ~ 25日19時 MSK に一時的に
風向・風速北西 5m/s 瞬間風速 10m/s
視程2,100m
天気現象弱い雷雨
全天の8割程度の積乱雲 雲底高度 460m
25日19時 MSK ~ 26日3時 MSK に一時的に
視程3,100m
天気現象弱いしゅう雨 もや
全天の8割程度の積乱雲 雲底高度 460m
26日3時 MSK ~ 26日7時 MSK に一時的に
風向・風速西南西 2m/s 瞬間風速 7m/s
視程1,000m
天気現象弱いしゅう雨 もや
全天の8割程度の雲 雲底高度 340m
全天の8割程度の積乱雲 雲底高度 610m
TAF ULLI 250759Z 2509/2609 28002G07MPS 6000 BKN011 BKN030
TEMPO 2509/2516 31005G10MPS 2100 -TSRA BKN015CB
TEMPO 2516/2524 3100 -SHRA BR BKN015CB
TEMPO 2600/2604 24002G07MPS 1000 -SHRA BR BKN011 BKN020CB